Time;durP1;ratioP1;P1;durP2;ratioP2;P2;SDS_P1;SDS_P2;PMS_P1;PMS_P2;Temp;Humidity;BMP_temperature;BMP_pressure;BME280_temperature;BME280_humidity;BME280_pressure;Samples;Min_cycle;Max_cycle;Signal;HPM_P1;HPM_P2
2024/02/16 00:02:15;;;;;;;13.40;7.63;;;;;;;3.87;47.58;94343.44;5054586;28;20102;-71
2024/02/16 00:04:43;;;;;;;7.85;5.57;;;;;;;3.81;47.33;94340.03;5035806;28;20026;-71
2024/02/16 00:07:08;;;;;;;10.35;5.90;;;;;;;4.06;47.39;94384.03;5053791;28;20033;-71
2024/02/16 00:09:33;;;;;;;6.13;5.28;;;;;;;4.03;47.25;94387.19;5053876;28;20078;-71
2024/02/16 00:11:59;;;;;;;7.05;4.97;;;;;;;4.07;47.35;94388.28;5054013;28;20021;-71
2024/02/16 00:14:24;;;;;;;9.88;5.90;;;;;;;3.96;47.39;94389.31;5054176;28;20378;-71
2024/02/16 00:16:49;;;;;;;7.50;4.80;;;;;;;3.96;47.40;94388.50;5053925;28;20033;-71
2024/02/16 00:19:15;;;;;;;7.45;5.78;;;;;;;3.95;47.53;94392.97;5053581;28;20037;-71
2024/02/16 00:21:42;;;;;;;9.75;6.10;;;;;;;3.92;47.63;94382.94;5053512;28;20409;-71
2024/02/16 00:24:08;;;;;;;8.77;6.53;;;;;;;3.89;47.86;94393.19;5053671;28;20040;-71
2024/02/16 00:26:33;;;;;;;10.23;6.75;;;;;;;3.99;48.01;94399.31;5053859;28;20021;-71
2024/02/16 00:28:58;;;;;;;14.38;8.40;;;;;;;3.90;48.04;94390.31;5053089;28;20040;-71
2024/02/16 00:31:24;;;;;;;11.15;7.22;;;;;;;3.64;48.20;94362.31;5053340;28;20033;-71
2024/02/16 00:33:49;;;;;;;9.38;7.00;;;;;;;3.98;48.09;94391.66;5053357;28;20080;-71
2024/02/16 00:36:14;;;;;;;12.23;7.45;;;;;;;3.96;48.19;94394.56;5053297;28;20060;-71
2024/02/16 00:38:40;;;;;;;11.55;8.02;;;;;;;3.84;48.22;94386.88;5053448;28;20069;-71
2024/02/16 00:41:07;;;;;;;14.60;8.45;;;;;;;3.92;48.44;94398.72;5053436;28;20060;-71
2024/02/16 00:43:32;;;;;;;13.35;7.57;;;;;;;3.88;48.53;94396.88;5053259;28;20460;-71
2024/02/16 00:45:58;;;;;;;9.90;7.40;;;;;;;3.73;48.15;94350.25;5053182;28;20059;-71
2024/02/16 00:48:24;;;;;;;12.43;7.45;;;;;;;4.09;47.91;94396.72;5053122;28;20487;-71
2024/02/16 00:50:49;;;;;;;13.95;7.90;;;;;;;4.11;47.97;94397.22;5053129;28;20025;-71
2024/02/16 00:53:14;;;;;;;10.65;7.13;;;;;;;4.18;47.84;94391.72;5053143;28;20029;-71
2024/02/16 00:55:41;;;;;;;10.20;6.63;;;;;;;4.18;47.57;94397.78;5052754;28;20029;-71
2024/02/16 00:58:07;;;;;;;9.55;7.82;;;;;;;4.12;47.71;94396.19;5052578;28;20124;-71
2024/02/16 01:00:32;;;;;;;12.60;6.72;;;;;;;4.03;47.76;94397.72;5052759;28;20128;-71
2024/02/16 01:02:57;;;;;;;9.27;6.72;;;;;;;3.75;48.18;94380.53;5053005;28;20028;-71
2024/02/16 01:05:23;;;;;;;8.50;6.18;;;;;;;3.77;48.13;94382.91;5053271;28;20381;-71
2024/02/16 01:07:48;;;;;;;14.43;7.82;;;;;;;3.86;48.18;94397.16;5052433;28;20033;-71
2024/02/16 01:10:14;;;;;;;10.77;6.68;;;;;;;3.73;48.27;94379.19;5051648;28;20068;-72
2024/02/16 01:12:39;;;;;;;12.55;7.50;;;;;;;3.81;48.42;94399.75;5052616;28;20060;-71
2024/02/16 01:15:05;;;;;;;10.15;6.88;;;;;;;3.83;48.50;94395.81;5052443;28;20056;-71
2024/02/16 01:17:32;;;;;;;9.68;7.25;;;;;;;3.90;48.12;94392.94;5053223;28;20545;-71
2024/02/16 01:19:58;;;;;;;10.68;6.57;;;;;;;3.90;48.23;94389.53;5052369;28;20064;-71
2024/02/16 01:22:23;;;;;;;7.22;5.72;;;;;;;3.92;47.92;94397.94;5052565;28;20478;-71
2024/02/16 01:24:49;;;;;;;5.63;4.72;;;;;;;3.89;47.95;94388.72;5052565;28;20025;-71
2024/02/16 01:27:15;;;;;;;8.13;6.07;;;;;;;3.84;48.00;94380.81;5052298;28;20513;-71
2024/02/16 01:29:41;;;;;;;8.68;6.32;;;;;;;3.86;48.16;94384.00;5053067;28;20029;-71
2024/02/16 01:32:07;;;;;;;9.95;4.97;;;;;;;3.93;47.95;94381.91;5052380;28;20037;-71
2024/02/16 01:34:32;;;;;;;7.75;5.18;;;;;;;3.98;47.76;94371.41;5052125;28;20120;-71
2024/02/16 01:36:58;;;;;;;9.07;5.05;;;;;;;4.01;47.89;94376.16;5052288;28;20105;-71
2024/02/16 01:39:23;;;;;;;6.18;4.72;;;;;;;3.76;48.11;94358.44;5051955;28;20048;-71
2024/02/16 01:41:49;;;;;;;7.72;4.50;;;;;;;3.70;47.87;94348.13;5052270;28;20044;-71
2024/02/16 01:44:16;;;;;;;8.55;5.00;;;;;;;3.83;48.11;94376.59;5052425;28;20469;-71
2024/02/16 01:46:42;;;;;;;7.63;5.70;;;;;;;3.72;48.25;94373.13;5052516;28;20025;-71
2024/02/16 01:49:08;;;;;;;7.18;5.20;;;;;;;3.65;48.20;94348.09;5052198;28;20043;-71
2024/02/16 01:51:34;;;;;;;5.35;4.45;;;;;;;3.72;48.29;94352.06;5052004;28;20037;-71
2024/02/16 01:54:00;;;;;;;6.85;4.55;;;;;;;3.93;47.91;94368.75;5051793;28;20581;-71
2024/02/16 01:56:27;;;;;;;6.10;4.47;;;;;;;3.73;48.06;94356.28;5052426;28;20052;-70
2024/02/16 01:58:52;;;;;;;6.75;4.22;;;;;;;3.69;48.06;94347.34;5051747;28;20064;-71
2024/02/16 02:01:17;;;;;;;6.57;4.30;;;;;;;3.87;48.12;94361.88;5051703;28;20053;-71
2024/02/16 02:03:43;;;;;;;6.35;4.28;;;;;;;3.94;47.99;94370.34;5051704;28;20082;-71
2024/02/16 02:06:08;;;;;;;5.32;4.03;;;;;;;3.90;47.77;94361.38;5051742;28;20041;-71
2024/02/16 02:08:34;;;;;;;6.03;4.18;;;;;;;3.90;47.83;94366.63;5052117;28;20028;-71
2024/02/16 02:10:59;;;;;;;5.75;4.07;;;;;;;3.97;47.59;94363.75;5051426;28;20041;-71
2024/02/16 02:13:24;;;;;;;4.50;3.47;;;;;;;3.90;47.64;94369.28;5051555;28;20402;-71
2024/02/16 02:15:50;;;;;;;4.45;3.35;;;;;;;3.81;48.04;94370.81;5051603;28;20067;-71
2024/02/16 02:18:15;;;;;;;5.38;3.88;;;;;;;3.73;48.07;94368.66;5051698;28;20098;-72
2024/02/16 02:20:41;;;;;;;5.05;4.00;;;;;;;3.72;48.13;94359.19;5051866;28;20494;-71
2024/02/16 02:23:06;;;;;;;6.47;3.92;;;;;;;3.65;48.23;94358.63;5050426;28;20053;-71
2024/02/16 02:25:31;;;;;;;5.85;3.70;;;;;;;3.72;48.33;94375.00;5051188;28;20025;-71
2024/02/16 02:27:57;;;;;;;7.28;4.22;;;;;;;3.62;48.36;94348.63;5051081;28;20553;-71
2024/02/16 02:30:23;;;;;;;5.40;4.28;;;;;;;3.65;48.55;94367.31;5051186;28;20039;-71
2024/02/16 02:32:50;;;;;;;4.63;3.72;;;;;;;3.65;48.49;94371.78;5051197;28;20029;-71
2024/02/16 02:35:17;;;;;;;8.38;4.75;;;;;;;3.63;48.62;94371.25;5033779;28;20029;-70
2024/02/16 02:37:43;;;;;;;6.80;4.97;;;;;;;3.58;48.73;94360.69;5051065;28;20037;-71
2024/02/16 02:40:08;;;;;;;8.27;5.38;;;;;;;3.51;48.83;94368.03;5050855;28;20725;-71
2024/02/16 02:42:34;;;;;;;6.65;4.32;;;;;;;3.50;49.03;94371.72;5051119;28;20029;-71
2024/02/16 02:45:00;;;;;;;5.85;4.45;;;;;;;3.56;48.95;94374.13;5050812;28;20389;-71
2024/02/16 02:47:26;;;;;;;4.25;3.85;;;;;;;3.42;48.91;94364.31;5051624;28;20043;-72
2024/02/16 02:49:51;;;;;;;5.05;3.55;;;;;;;3.52;48.92;94367.00;5050962;28;20123;-71
2024/02/16 02:52:17;;;;;;;5.18;3.78;;;;;;;3.67;48.80;94369.69;5051130;28;20071;-71
2024/02/16 02:54:42;;;;;;;4.30;3.83;;;;;;;3.61;48.54;94366.25;5051013;28;20087;-71
2024/02/16 02:57:08;;;;;;;3.85;3.53;;;;;;;3.48;48.76;94371.94;5050334;28;20025;-71
2024/02/16 02:59:33;;;;;;;8.07;3.83;;;;;;;3.27;49.20;94376.31;5051013;28;20029;-71
2024/02/16 03:01:58;;;;;;;5.57;4.15;;;;;;;3.34;48.95;94371.63;5050550;28;20032;-72
2024/02/16 03:04:24;;;;;;;5.82;3.95;;;;;;;3.47;48.76;94366.97;5050529;28;20465;-71
2024/02/16 03:06:52;;;;;;;3.88;3.20;;;;;;;3.40;49.03;94370.59;5050880;28;20029;-72
2024/02/16 03:09:17;;;;;;;6.55;3.55;;;;;;;3.48;48.95;94363.28;5050696;28;20033;-71
2024/02/16 03:11:43;;;;;;;4.13;3.15;;;;;;;3.32;48.72;94336.91;5051305;28;20032;-71
2024/02/16 03:14:08;;;;;;;8.93;4.25;;;;;;;3.52;48.69;94372.25;5050447;28;20048;-71
2024/02/16 03:16:34;;;;;;;5.32;3.40;;;;;;;3.52;48.80;94367.00;5050332;28;20565;-72
2024/02/16 03:18:59;;;;;;;4.90;3.72;;;;;;;3.49;48.71;94354.34;5050483;28;20029;-71
2024/02/16 03:21:25;;;;;;;4.05;3.35;;;;;;;3.39;48.54;94347.97;5050677;28;20114;-71
2024/02/16 03:23:50;;;;;;;6.20;3.22;;;;;;;3.51;48.56;94365.41;5050569;28;20078;-71
2024/02/16 03:26:17;;;;;;;4.70;3.55;;;;;;;3.42;48.95;94375.63;5050927;28;20108;-71
2024/02/16 03:28:49;;;;;;;3.42;3.13;;;;;;;3.46;49.03;94363.53;5050202;28;20494;-72
2024/02/16 03:31:16;;;;;;;5.15;3.72;;;;;;;3.50;48.81;94369.06;5050147;28;20067;-71
2024/02/16 03:33:42;;;;;;;3.10;2.78;;;;;;;3.32;49.24;94378.97;5049813;28;20044;-71
2024/02/16 03:36:08;;;;;;;4.63;3.08;;;;;;;3.28;49.31;94358.72;5049976;28;20024;-71
2024/02/16 03:38:34;;;;;;;3.65;2.83;;;;;;;3.50;48.90;94369.06;5050667;28;20028;-70
2024/02/16 03:40:59;;;;;;;3.50;2.65;;;;;;;3.32;49.17;94371.09;5050157;28;20090;-71
2024/02/16 03:43:25;;;;;;;2.97;2.67;;;;;;;3.33;49.43;94370.03;5050260;28;20048;-71
2024/02/16 03:45:50;;;;;;;3.55;3.17;;;;;;;3.32;49.52;94383.44;5050291;28;20554;-71
2024/02/16 03:48:16;;;;;;;3.78;3.05;;;;;;;3.27;49.59;94365.81;5032320;28;20033;-71
2024/02/16 03:50:41;;;;;;;4.30;3.28;;;;;;;3.36;49.50;94379.25;5050530;28;20107;-71
2024/02/16 03:53:06;;;;;;;4.32;2.70;;;;;;;3.31;49.68;94384.47;5050157;28;20075;-71
2024/02/16 03:55:36;;;;;;;4.32;3.65;;;;;;;3.25;49.55;94386.28;5050005;28;20498;-72
2024/02/16 03:58:02;;;;;;;5.25;3.95;;;;;;;3.09;49.71;94368.03;5050093;28;20037;-71
2024/02/16 04:00:28;;;;;;;4.65;2.80;;;;;;;3.18;49.92;94377.03;5050095;28;20029;-71
2024/02/16 04:02:53;;;;;;;3.88;3.53;;;;;;;3.13;49.83;94372.56;5050309;28;20369;-70
2024/02/16 04:05:18;;;;;;;4.30;2.53;;;;;;;3.23;49.94;94359.44;5050156;28;20021;-71
2024/02/16 04:07:44;;;;;;;3.17;2.75;;;;;;;3.37;49.57;94372.97;5049862;28;20033;-71
2024/02/16 04:10:09;;;;;;;3.10;2.30;;;;;;;3.40;49.61;94370.59;5049911;28;20494;-72
2024/02/16 04:12:36;;;;;;;3.10;2.80;;;;;;;3.48;49.57;94360.66;5049824;28;20029;-71
2024/02/16 04:15:01;;;;;;;3.92;2.70;;;;;;;3.46;49.43;94363.53;5050121;28;20086;-71
2024/02/16 04:17:27;;;;;;;3.33;3.05;;;;;;;3.43;49.47;94358.00;5050410;28;20032;-71
2024/02/16 04:19:52;;;;;;;4.25;2.40;;;;;;;3.44;49.24;94370.09;5049391;28;20037;-71
2024/02/16 04:22:17;;;;;;;3.13;2.50;;;;;;;3.27;49.34;94365.81;5049705;28;20052;-71
2024/02/16 04:24:43;;;;;;;3.08;2.50;;;;;;;3.33;49.43;94374.53;5049774;28;20036;-71
2024/02/16 04:27:08;;;;;;;2.90;2.60;;;;;;;3.30;49.25;94360.03;5049845;28;20116;-70
2024/02/16 04:29:33;;;;;;;3.13;2.72;;;;;;;3.33;49.54;94370.03;5049956;28;20436;-71
2024/02/16 04:31:59;;;;;;;3.47;2.63;;;;;;;3.30;49.30;94367.91;5049728;28;20035;-71
2024/02/16 04:34:24;;;;;;;3.58;3.28;;;;;;;3.43;49.23;94373.78;5031935;28;20063;-70
2024/02/16 04:36:50;;;;;;;3.00;2.70;;;;;;;3.21;49.53;94355.50;5049629;28;20025;-70
2024/02/16 04:39:17;;;;;;;4.47;3.28;;;;;;;3.32;49.64;94373.72;5049614;28;20060;-71
2024/02/16 04:41:42;;;;;;;4.28;3.08;;;;;;;3.31;49.72;94377.38;5050349;28;20044;-70
2024/02/16 04:44:08;;;;;;;3.72;3.33;;;;;;;3.27;49.72;94378.94;5049476;28;20045;-70
2024/02/16 04:46:33;;;;;;;4.22;2.83;;;;;;;3.18;49.79;94375.22;5051643;28;20033;-71
2024/02/16 04:48:58;;;;;;;3.42;2.78;;;;;;;2.95;49.86;94352.69;5053007;28;20448;-71
2024/02/16 04:51:24;;;;;;;6.35;3.72;;;;;;;2.93;50.21;94367.16;5053059;28;20029;-71
2024/02/16 04:53:49;;;;;;;4.53;3.75;;;;;;;3.06;49.98;94384.31;5053256;28;20021;-70
2024/02/16 04:56:14;;;;;;;6.35;4.22;;;;;;;2.94;49.98;94371.34;5053580;28;20422;-70
2024/02/16 04:58:41;;;;;;;5.72;4.25;;;;;;;2.98;49.99;94372.44;5053198;28;20033;-71
2024/02/16 05:01:07;;;;;;;5.50;3.65;;;;;;;2.98;50.03;94361.94;5052902;28;20102;-71
2024/02/16 05:03:32;;;;;;;6.05;4.53;;;;;;;3.16;50.15;94385.19;5052643;28;20033;-71
2024/02/16 05:05:57;;;;;;;4.50;3.13;;;;;;;3.07;50.21;94389.31;5053109;28;20028;-71
2024/02/16 05:08:23;;;;;;;3.35;2.72;;;;;;;3.06;50.26;94394.81;5053117;28;20462;-71
2024/02/16 05:10:48;;;;;;;7.70;3.42;;;;;;;3.03;50.20;94398.75;5052421;28;20102;-70
2024/02/16 05:13:14;;;;;;;3.45;2.88;;;;;;;2.85;50.33;94376.25;5052469;28;20123;-71
2024/02/16 05:15:39;;;;;;;5.35;2.72;;;;;;;2.82;50.50;94379.41;5052486;28;20041;-71
2024/02/16 05:18:05;;;;;;;4.38;3.00;;;;;;;3.02;50.37;94401.63;5052635;28;20494;-71
2024/02/16 05:20:30;;;;;;;4.18;3.00;;;;;;;2.98;50.44;94401.34;5053288;28;20021;-71
2024/02/16 05:22:56;;;;;;;5.15;4.13;;;;;;;2.85;50.59;94407.00;5052635;28;20181;-71
2024/02/16 05:25:22;;;;;;;6.18;4.22;;;;;;;2.85;50.35;94396.50;5052321;28;20033;-71
2024/02/16 05:27:48;;;;;;;7.53;4.35;;;;;;;2.98;50.40;94406.59;5052316;28;20123;-71
2024/02/16 05:30:15;;;;;;;5.47;4.60;;;;;;;2.80;50.58;94378.06;5034778;28;20053;-71
2024/02/16 05:32:41;;;;;;;6.45;4.07;;;;;;;2.88;50.44;94396.00;5052718;28;20031;-71
2024/02/16 05:35:11;;;;;;;5.38;3.53;;;;;;;2.92;50.59;94415.47;5051666;28;20127;-71
2024/02/16 05:37:43;;;;;;;4.70;3.63;;;;;;;2.81;50.59;94396.22;5052008;28;20065;-71
2024/02/16 05:40:24;;;;;;;7.03;4.50;;;;;;;2.85;50.81;94409.63;5051854;28;20049;-71
2024/02/16 05:42:51;;;;;;;4.78;4.25;;;;;;;2.86;50.95;94417.25;5051918;28;20517;-71
2024/02/16 05:45:17;;;;;;;4.75;4.15;;;;;;;2.65;50.58;94385.81;5051192;28;20110;-71
2024/02/16 05:47:47;;;;;;;7.50;4.32;;;;;;;2.89;50.95;94429.13;5051045;28;20029;-70
2024/02/16 05:50:14;;;;;;;4.55;3.92;;;;;;;2.90;51.14;94423.59;5050410;28;20033;-70
2024/02/16 05:52:40;;;;;;;7.85;5.72;;;;;;;2.88;50.59;94425.69;5049880;28;20120;-70
2024/02/16 05:55:07;;;;;;;8.70;6.32;;;;;;;2.90;50.75;94413.09;5049981;28;20502;-70
2024/02/16 05:57:33;;;;;;;9.35;5.90;;;;;;;3.02;50.62;94435.78;5050197;28;20102;-70
2024/02/16 05:59:58;;;;;;;9.57;6.15;;;;;;;3.00;50.66;94422.88;5050883;28;20482;-71
2024/02/16 06:02:27;;;;;;;8.68;6.50;;;;;;;3.02;50.80;94431.34;5051286;28;20486;-70
2024/02/16 06:04:55;;;;;;;9.40;7.03;;;;;;;3.08;50.71;94421.66;5050515;28;20040;-70
2024/02/16 06:07:20;;;;;;;9.63;7.13;;;;;;;3.03;50.51;94414.53;5050375;28;20037;-70
2024/02/16 06:09:46;;;;;;;10.55;7.78;;;;;;;3.05;50.71;94430.03;5050146;28;20035;-70
2024/02/16 06:12:12;;;;;;;13.32;8.10;;;;;;;3.15;50.74;94425.63;5050266;28;20036;-70
2024/02/16 06:14:38;;;;;;;10.48;7.15;;;;;;;3.27;50.24;94423.63;5050878;28;20025;-70
2024/02/16 06:17:04;;;;;;;12.35;7.38;;;;;;;3.33;50.34;94427.88;5051376;28;20567;-70
2024/02/16 06:19:30;;;;;;;12.23;7.63;;;;;;;3.43;50.16;94434.25;5051466;28;20041;-70
2024/02/16 06:21:56;;;;;;;18.55;8.73;;;;;;;3.45;49.88;94434.78;5051583;28;20082;-71
2024/02/16 06:24:22;;;;;;;15.20;8.25;;;;;;;3.39;49.79;94429.50;5051334;28;20025;-70
2024/02/16 06:26:49;;;;;;;11.45;8.57;;;;;;;3.53;49.74;94424.56;5051717;28;20025;-69
2024/02/16 06:29:14;;;;;;;9.43;7.55;;;;;;;3.47;49.50;94401.94;5051866;28;20021;-70
2024/02/16 06:31:39;;;;;;;13.57;7.82;;;;;;;3.87;49.23;94421.63;5051254;28;20060;-71
2024/02/16 06:34:05;;;;;;;23.63;9.85;;;;;;;3.65;48.98;94408.63;5051261;28;20055;-70
2024/02/16 06:36:30;;;;;;;14.95;9.10;;;;;;;3.87;49.16;94409.25;5051150;28;20033;-70
2024/02/16 06:38:56;;;;;;;18.90;8.30;;;;;;;4.12;48.95;94422.50;5050979;28;20522;-70
2024/02/16 06:41:21;;;;;;;22.23;10.13;;;;;;;4.26;48.54;94433.34;5051569;28;20025;-71
2024/02/16 06:43:46;;;;;;;16.70;9.68;;;;;;;4.27;48.31;94427.84;5051157;28;20514;-69
2024/02/16 06:46:12;;;;;;;13.40;9.13;;;;;;;4.10;47.85;94427.25;5050932;28;20033;-70
2024/02/16 06:48:37;;;;;;;11.63;7.93;;;;;;;3.97;48.07;94395.31;5051047;28;20032;-70
2024/02/16 06:51:02;;;;;;;15.50;10.15;;;;;;;3.97;48.77;94432.19;5051043;28;20391;-70
2024/02/16 06:53:28;;;;;;;29.35;11.23;;;;;;;4.12;48.77;94430.41;5050896;28;20052;-70
2024/02/16 06:55:54;;;;;;;26.48;11.85;;;;;;;4.16;49.13;94428.06;5050128;28;20041;-70
2024/02/16 06:58:20;;;;;;;29.08;11.85;;;;;;;3.71;49.91;94439.16;5050383;28;20040;-70
2024/02/16 07:00:45;;;;;;;22.40;9.52;;;;;;;3.76;49.87;94426.03;5050593;28;20029;-71
2024/02/16 07:03:10;;;;;;;22.23;12.68;;;;;;;4.25;49.50;94440.47;5050680;28;20052;-71
2024/02/16 07:05:36;;;;;;;25.40;13.65;;;;;;;4.03;49.99;94439.06;5051412;28;20045;-70
2024/02/16 07:08:01;;;;;;;27.35;14.75;;;;;;;3.95;50.38;94419.28;5049313;28;20405;-71
2024/02/16 07:10:27;;;;;;;27.48;16.25;;;;;;;4.34;49.80;94443.44;5050105;28;20041;-70
2024/02/16 07:12:52;;;;;;;19.35;12.15;;;;;;;4.21;49.79;94441.22;5050246;28;20398;-70
2024/02/16 07:15:17;;;;;;;19.45;12.35;;;;;;;4.20;50.09;94443.09;5050247;28;20056;-70
2024/02/16 07:17:43;;;;;;;19.17;11.05;;;;;;;4.40;49.75;94437.13;5050523;28;20029;-70
2024/02/16 07:20:09;;;;;;;20.58;13.60;;;;;;;4.58;48.93;94430.59;5031401;28;20029;-71
2024/02/16 07:22:34;;;;;;;16.75;10.98;;;;;;;4.42;48.82;94428.97;5049683;28;20665;-70
2024/02/16 07:24:59;;;;;;;17.52;9.82;;;;;;;4.75;47.68;94433.78;5049572;28;20037;-71
2024/02/16 07:27:26;;;;;;;19.95;10.05;;;;;;;4.51;48.52;94419.50;5049026;28;20048;-70
2024/02/16 07:29:51;;;;;;;22.20;11.18;;;;;;;4.32;49.13;94442.09;5050008;28;20025;-70
2024/02/16 07:32:16;;;;;;;20.55;11.63;;;;;;;4.39;49.42;94435.53;5050765;28;20386;-70
2024/02/16 07:34:46;;;;;;;16.50;9.88;;;;;;;4.32;48.54;94435.00;5050112;28;20040;-70
2024/02/16 07:37:12;;;;;;;15.10;9.15;;;;;;;4.69;48.76;94429.56;5049938;28;20324;-70
2024/02/16 07:39:37;;;;;;;15.48;8.25;;;;;;;4.77;47.33;94429.03;5049849;28;20581;-70
2024/02/16 07:42:03;;;;;;;11.48;7.15;;;;;;;4.96;47.24;94440.66;5050121;28;20021;-70
2024/02/16 07:44:28;;;;;;;10.57;7.43;;;;;;;5.23;46.54;94435.16;5050484;28;20482;-70
2024/02/16 07:46:53;;;;;;;10.15;7.60;;;;;;;5.35;47.04;94427.75;5050096;28;20036;-70
2024/02/16 07:49:19;;;;;;;12.73;7.15;;;;;;;5.19;46.57;94430.66;5050057;28;20490;-70
2024/02/16 07:51:44;;;;;;;12.02;7.20;;;;;;;5.44;45.81;94436.69;5049714;28;20068;-70
2024/02/16 07:54:10;;;;;;;12.43;8.23;;;;;;;5.17;46.15;94440.69;5050226;28;20036;-71
2024/02/16 07:56:35;;;;;;;10.45;7.70;;;;;;;5.18;46.54;94429.88;5050130;28;20053;-70
2024/02/16 07:59:00;;;;;;;13.23;9.35;;;;;;;5.21;46.58;94436.44;5048300;28;20112;-70
2024/02/16 08:01:26;;;;;;;21.38;9.13;;;;;;;5.20;46.16;94443.56;5049528;28;20140;-70
2024/02/16 08:03:52;;;;;;;15.85;9.63;;;;;;;4.83;47.96;94441.19;5049746;28;20040;-70
2024/02/16 08:06:20;;;;;;;16.20;9.82;;;;;;;5.01;47.45;94439.88;5050095;28;20112;-70
2024/02/16 08:08:47;;;;;;;16.58;9.82;;;;;;;4.93;48.03;94446.47;5050313;28;20485;-70
2024/02/16 08:11:12;;;;;;;14.20;8.85;;;;;;;5.25;47.61;94442.78;5049966;28;20048;-70
2024/02/16 08:13:38;;;;;;;19.25;10.38;;;;;;;4.76;48.76;94445.91;5049638;28;20033;-70
2024/02/16 08:16:06;;;;;;;18.85;9.75;;;;;;;4.66;48.69;94448.50;5049571;28;20402;-70
2024/02/16 08:18:33;;;;;;;15.13;9.38;;;;;;;4.62;48.94;94452.72;5049733;28;20033;-70
2024/02/16 08:20:59;;;;;;;17.40;9.10;;;;;;;4.81;48.00;94427.47;5052635;28;20025;-70
2024/02/16 08:23:24;;;;;;;14.18;9.70;;;;;;;5.00;47.61;94446.97;5053455;28;20024;-70
2024/02/16 08:25:50;;;;;;;15.85;10.57;;;;;;;4.87;48.16;94431.69;5052570;28;20042;-70
2024/02/16 08:28:15;;;;;;;21.00;10.07;;;;;;;5.28;47.02;94442.28;5052536;28;20098;-70
2024/02/16 08:30:43;;;;;;;22.63;12.27;;;;;;;5.43;46.92;94444.91;5052866;28;20367;-70
2024/02/16 08:33:10;;;;;;;29.90;12.75;;;;;;;5.01;47.37;94435.41;5052626;28;20569;-71
2024/02/16 08:35:35;;;;;;;30.27;14.23;;;;;;;5.28;47.36;94448.34;5052885;28;20095;-70
2024/02/16 08:38:00;;;;;;;20.17;11.73;;;;;;;5.50;46.80;94450.69;5052631;28;20542;-70
2024/02/16 08:40:26;;;;;;;20.15;12.77;;;;;;;5.52;46.97;94453.84;5052375;28;20045;-70
2024/02/16 08:42:51;;;;;;;20.20;12.75;;;;;;;5.10;47.82;94435.66;5052324;28;20044;-70
2024/02/16 08:45:17;;;;;;;15.63;11.07;;;;;;;4.59;48.92;94440.88;5052330;28;20430;-70
2024/02/16 08:47:43;;;;;;;21.80;11.15;;;;;;;4.65;49.09;94449.56;5053249;28;20071;-70
2024/02/16 08:50:11;;;;;;;25.98;11.57;;;;;;;4.98;48.35;94428.03;5052290;28;20086;-70
2024/02/16 08:52:36;;;;;;;16.67;10.50;;;;;;;5.24;47.62;94446.47;5052069;28;20067;-70
2024/02/16 08:55:02;;;;;;;19.15;11.00;;;;;;;5.50;47.40;94450.69;5051809;28;20501;-70
2024/02/16 08:57:27;;;;;;;17.48;9.35;;;;;;;5.74;46.57;94449.06;5052319;28;20044;-69
2024/02/16 08:59:53;;;;;;;20.05;10.52;;;;;;;5.96;46.38;94444.28;5052528;28;20465;-70
2024/02/16 09:02:18;;;;;;;17.80;11.95;;;;;;;6.02;46.22;94453.75;5053398;28;20061;-70
2024/02/16 09:04:46;;;;;;;29.45;13.68;;;;;;;5.20;47.17;94451.47;5052955;28;20397;-70
2024/02/16 09:07:11;;;;;;;24.48;12.13;;;;;;;5.16;47.73;94460.19;5052371;28;20041;-71
2024/02/16 09:09:36;;;;;;;16.40;9.45;;;;;;;5.03;47.24;94449.13;5052294;28;20045;-70
2024/02/16 09:12:02;;;;;;;15.52;10.07;;;;;;;5.58;47.12;94443.00;5052731;28;20021;-70
2024/02/16 09:14:27;;;;;;;18.23;10.00;;;;;;;5.55;46.61;94453.31;5053116;28;20021;-71
2024/02/16 09:16:53;;;;;;;19.52;10.77;;;;;;;5.74;46.79;94462.25;5052545;28;20425;-70
2024/02/16 09:19:19;;;;;;;17.70;10.55;;;;;;;5.63;46.97;94463.31;5052521;28;20041;-70
2024/02/16 09:21:45;;;;;;;16.08;9.43;;;;;;;5.64;46.29;94466.75;5052064;28;20451;-71
2024/02/16 09:24:17;;;;;;;17.92;9.90;;;;;;;5.41;47.07;94462.81;5052174;28;20460;-70
2024/02/16 09:26:42;;;;;;;21.02;12.80;;;;;;;5.55;47.04;94463.88;5053000;28;20098;-70
2024/02/16 09:29:07;;;;;;;15.10;10.05;;;;;;;5.73;46.22;94460.66;5052426;28;20072;-70
2024/02/16 09:31:33;;;;;;;14.25;9.55;;;;;;;6.33;45.50;94453.69;5051219;28;20029;-71
2024/02/16 09:33:58;;;;;;;21.38;12.63;;;;;;;6.48;45.51;94444.91;5051954;28;20041;-70
2024/02/16 09:36:23;;;;;;;20.73;12.52;;;;;;;6.56;45.13;94453.03;5052083;28;20452;-70
2024/02/16 09:38:49;;;;;;;12.27;9.30;;;;;;;5.83;46.08;94460.66;5051923;28;20045;-71
2024/02/16 09:41:17;;;;;;;12.77;8.98;;;;;;;6.48;45.79;94448.31;5053009;28;20021;-70
2024/02/16 09:43:43;;;;;;;19.80;13.93;;;;;;;6.41;45.38;94439.88;5052001;28;20045;-71
2024/02/16 09:46:08;;;;;;;26.77;13.18;;;;;;;6.21;45.85;94455.84;5051982;28;20521;-70
2024/02/16 09:48:35;;;;;;;19.20;10.30;;;;;;;5.51;46.91;94457.53;5051660;28;20037;-70
2024/02/16 09:51:00;;;;;;;19.27;10.48;;;;;;;5.78;46.63;94458.03;5051933;28;20096;-70
2024/02/16 09:53:27;;;;;;;18.40;12.40;;;;;;;5.91;46.36;94457.50;5051979;28;20129;-70
2024/02/16 09:55:53;;;;;;;22.65;11.18;;;;;;;6.27;46.02;94452.09;5051653;28;20127;-70
2024/02/16 09:58:19;;;;;;;16.70;11.77;;;;;;;6.39;45.36;94431.47;5051726;28;20044;-70
2024/02/16 10:00:56;;;;;;;17.00;8.55;;;;;;;5.99;46.45;94443.72;5034328;28;20391;-70
2024/02/16 10:03:29;;;;;;;10.98;6.88;;;;;;;5.81;46.42;94452.22;5051734;28;20028;-70
2024/02/16 10:06:08;;;;;;;8.45;7.05;;;;;;;5.70;46.28;94440.09;5051582;28;20009;-70
2024/02/16 10:08:34;;;;;;;8.57;6.65;;;;;;;5.76;46.06;94433.75;5052200;28;20044;-70
2024/02/16 10:11:01;;;;;;;10.90;6.60;;;;;;;5.96;46.09;94428.44;5051365;28;20029;-70
2024/02/16 10:13:27;;;;;;;6.05;5.30;;;;;;;6.08;45.69;94433.41;5051025;28;20033;-70
2024/02/16 10:16:03;;;;;;;9.68;5.03;;;;;;;6.02;45.36;94431.81;5051635;28;20037;-70
2024/02/16 10:18:29;;;;;;;8.07;6.18;;;;;;;5.45;45.48;94379.47;5051226;28;20029;-70
2024/02/16 10:20:54;;;;;;;9.05;7.20;;;;;;;5.76;45.94;94433.75;5051148;28;20025;-70
2024/02/16 10:23:20;;;;;;;16.58;9.40;;;;;;;6.13;45.88;94422.03;5051954;28;20245;-70
2024/02/16 10:25:46;;;;;;;24.42;16.10;;;;;;;6.52;44.85;94412.38;5051223;28;20033;-70
2024/02/16 10:28:13;;;;;;;20.65;9.57;;;;;;;6.32;45.03;94423.81;5051340;28;20032;-70
2024/02/16 10:30:40;;;;;;;13.00;8.63;;;;;;;6.29;45.83;94415.66;5050938;28;20033;-70
2024/02/16 10:33:07;;;;;;;10.18;8.23;;;;;;;6.09;45.13;94420.97;5033128;28;20021;-70
2024/02/16 10:35:36;;;;;;;12.82;8.15;;;;;;;6.14;45.49;94413.84;5051905;28;20049;-70
2024/02/16 10:38:09;;;;;;;12.50;8.45;;;;;;;6.37;45.12;94412.44;5050847;28;20055;-70
2024/02/16 10:40:42;;;;;;;14.68;8.10;;;;;;;6.69;45.14;94406.72;5050490;28;20457;-69
2024/02/16 10:43:09;;;;;;;11.52;7.10;;;;;;;6.49;44.43;94399.72;5049959;28;20033;-70
2024/02/16 10:45:36;;;;;;;9.82;6.75;;;;;;;6.74;44.44;94406.69;5050571;28;20033;-70
2024/02/16 10:48:06;;;;;;;12.60;6.85;;;;;;;6.30;44.99;94398.75;5050612;28;20033;-70
2024/02/16 10:50:35;;;;;;;10.75;7.65;;;;;;;6.33;45.32;94395.56;5051075;28;20047;-70
2024/02/16 10:53:21;;;;;;;9.32;6.68;;;;;;;6.31;45.11;94397.69;5050254;28;20308;-70
2024/02/16 10:55:46;;;;;;;13.23;7.25;;;;;;;6.33;44.38;94371.78;5050320;28;20041;-70
2024/02/16 10:58:12;;;;;;;9.32;7.32;;;;;;;6.72;43.93;94377.09;5050469;28;20406;-70
2024/02/16 11:00:49;;;;;;;14.30;8.00;;;;;;;7.01;43.66;94390.38;5050369;28;20044;-70
2024/02/16 11:03:17;;;;;;;11.65;7.28;;;;;;;7.41;43.62;94390.03;5050429;28;20389;-68
2024/02/16 11:05:42;;;;;;;10.18;6.93;;;;;;;6.87;43.26;94390.22;5050925;28;20032;-70
2024/02/16 11:08:19;;;;;;;11.25;6.82;;;;;;;6.72;43.36;94382.38;5050289;28;20265;-70
2024/02/16 11:10:56;;;;;;;9.60;6.70;;;;;;;6.69;43.63;94382.94;5049957;28;20108;-70
2024/02/16 11:13:31;;;;;;;10.00;6.30;;;;;;;6.67;44.26;94385.06;5050125;28;20033;-70
2024/02/16 11:16:02;;;;;;;13.43;7.35;;;;;;;6.50;44.28;94360.84;5050147;28;20037;-70
2024/02/16 11:18:29;;;;;;;9.88;6.95;;;;;;;6.65;43.90;94376.63;5050172;28;20061;-70
2024/02/16 11:20:54;;;;;;;13.65;8.85;;;;;;;7.17;43.34;94375.97;5049878;28;20526;-70
2024/02/16 11:23:31;;;;;;;14.77;9.27;;;;;;;7.50;43.01;94377.78;5050804;28;20032;-70
2024/02/16 11:26:06;;;;;;;9.90;6.30;;;;;;;7.61;41.99;94350.13;5050030;28;20029;-70
2024/02/16 11:28:33;;;;;;;9.03;6.07;;;;;;;7.75;41.31;94373.31;5050000;28;20218;-70
2024/02/16 11:30:59;;;;;;;8.77;4.97;;;;;;;7.96;42.47;94359.56;5049844;28;20120;-70
2024/02/16 11:33:27;;;;;;;6.88;5.25;;;;;;;7.45;41.88;94354.00;5049723;28;20163;-70